sensor_id;sensor_type;location;lat;lon;timestamp;pressure;altitude;pressure_sealevel;temperature;humidity
38227;BME280;24026;49.446;8.576;2024-01-30T00:02:02;101889.44;;;11.95;44.61
38227;BME280;24026;49.446;8.576;2024-01-30T00:04:23;101891.25;;;11.94;44.62
38227;BME280;24026;49.446;8.576;2024-01-30T00:06:44;101892.31;;;11.93;44.47
38227;BME280;24026;49.446;8.576;2024-01-30T00:09:04;101882.66;;;11.92;44.55
38227;BME280;24026;49.446;8.576;2024-01-30T00:11:25;101893.31;;;11.92;44.58
38227;BME280;24026;49.446;8.576;2024-01-30T00:13:45;101895.19;;;11.92;44.61
38227;BME280;24026;49.446;8.576;2024-01-30T00:16:06;101894.56;;;11.90;44.54
38227;BME280;24026;49.446;8.576;2024-01-30T00:18:27;101899.88;;;11.90;44.54
38227;BME280;24026;49.446;8.576;2024-01-30T00:20:47;101880.59;;;11.87;44.51
38227;BME280;24026;49.446;8.576;2024-01-30T00:23:07;101896.59;;;11.87;44.63
38227;BME280;24026;49.446;8.576;2024-01-30T00:25:28;101889.66;;;11.86;44.51
38227;BME280;24026;49.446;8.576;2024-01-30T00:27:48;101891.47;;;11.86;44.66
38227;BME280;24026;49.446;8.576;2024-01-30T00:30:09;101887.19;;;11.85;44.48
38227;BME280;24026;49.446;8.576;2024-01-30T00:32:30;101893.31;;;11.85;44.72
38227;BME280;24026;49.446;8.576;2024-01-30T00:34:50;101896.19;;;11.84;44.56
38227;BME280;24026;49.446;8.576;2024-01-30T00:37:11;101904.19;;;11.84;44.72
38227;BME280;24026;49.446;8.576;2024-01-30T00:39:31;101898.25;;;11.82;44.71
38227;BME280;24026;49.446;8.576;2024-01-30T00:41:52;101903.59;;;11.82;44.57
38227;BME280;24026;49.446;8.576;2024-01-30T00:44:12;101902.78;;;11.81;44.62
38227;BME280;24026;49.446;8.576;2024-01-30T00:46:33;101900.34;;;11.80;44.64
38227;BME280;24026;49.446;8.576;2024-01-30T00:48:53;101904.00;;;11.79;44.33
38227;BME280;24026;49.446;8.576;2024-01-30T00:51:13;101903.22;;;11.78;44.58
38227;BME280;24026;49.446;8.576;2024-01-30T00:53:35;101905.06;;;11.78;44.44
38227;BME280;24026;49.446;8.576;2024-01-30T00:55:55;101892.75;;;11.77;44.55
38227;BME280;24026;49.446;8.576;2024-01-30T00:58:15;101900.16;;;11.75;44.65
38227;BME280;24026;49.446;8.576;2024-01-30T01:00:36;101901.16;;;11.74;44.67
38227;BME280;24026;49.446;8.576;2024-01-30T01:02:58;101900.38;;;11.73;44.50
38227;BME280;24026;49.446;8.576;2024-01-30T01:05:18;101904.84;;;11.73;44.63
38227;BME280;24026;49.446;8.576;2024-01-30T01:07:39;101900.56;;;11.72;44.59
38227;BME280;24026;49.446;8.576;2024-01-30T01:10:00;101905.31;;;11.70;44.73
38227;BME280;24026;49.446;8.576;2024-01-30T01:12:20;101906.31;;;11.68;44.59
38227;BME280;24026;49.446;8.576;2024-01-30T01:14:41;101901.00;;;11.68;44.73
38227;BME280;24026;49.446;8.576;2024-01-30T01:17:02;101900.19;;;11.68;44.79
38227;BME280;24026;49.446;8.576;2024-01-30T01:19:22;101902.00;;;11.67;44.75
38227;BME280;24026;49.446;8.576;2024-01-30T01:21:43;101889.75;;;11.66;44.71
38227;BME280;24026;49.446;8.576;2024-01-30T01:24:03;101896.91;;;11.66;44.77
38227;BME280;24026;49.446;8.576;2024-01-30T01:26:24;101891.81;;;11.64;44.71
38227;BME280;24026;49.446;8.576;2024-01-30T01:28:44;101892.81;;;11.63;44.54
38227;BME280;24026;49.446;8.576;2024-01-30T01:31:05;101898.16;;;11.63;44.75
38227;BME280;24026;49.446;8.576;2024-01-30T01:33:26;101893.84;;;11.62;44.79
38227;BME280;24026;49.446;8.576;2024-01-30T01:35:46;101898.38;;;11.62;44.69
38227;BME280;24026;49.446;8.576;2024-01-30T01:38:06;101889.56;;;11.61;44.62
38227;BME280;24026;49.446;8.576;2024-01-30T01:40:27;101895.09;;;11.60;44.47
38227;BME280;24026;49.446;8.576;2024-01-30T01:42:48;101890.78;;;11.59;44.62
38227;BME280;24026;49.446;8.576;2024-01-30T01:45:09;101888.13;;;11.59;44.51
38227;BME280;24026;49.446;8.576;2024-01-30T01:47:29;101894.50;;;11.58;44.57
38227;BME280;24026;49.446;8.576;2024-01-30T01:49:50;101891.00;;;11.57;44.73
38227;BME280;24026;49.446;8.576;2024-01-30T01:52:10;101901.66;;;11.57;44.72
38227;BME280;24026;49.446;8.576;2024-01-30T01:54:31;101885.88;;;11.56;44.58
38227;BME280;24026;49.446;8.576;2024-01-30T01:56:52;101891.22;;;11.56;44.57
38227;BME280;24026;49.446;8.576;2024-01-30T01:59:13;101884.28;;;11.55;44.84
38227;BME280;24026;49.446;8.576;2024-01-30T02:01:36;101887.75;;;11.55;44.76
38227;BME280;24026;49.446;8.576;2024-01-30T02:03:57;101878.31;;;11.53;44.79
38227;BME280;24026;49.446;8.576;2024-01-30T02:06:18;101874.84;;;11.52;44.58
38227;BME280;24026;49.446;8.576;2024-01-30T02:08:39;101875.66;;;11.53;44.83
38227;BME280;24026;49.446;8.576;2024-01-30T02:10:59;101878.56;;;11.51;44.84
38227;BME280;24026;49.446;8.576;2024-01-30T02:13:21;101874.25;;;11.50;44.70
38227;BME280;24026;49.446;8.576;2024-01-30T02:15:41;101880.59;;;11.49;44.70
38227;BME280;24026;49.446;8.576;2024-01-30T02:18:02;101875.25;;;11.49;44.61
38227;BME280;24026;49.446;8.576;2024-01-30T02:20:24;101880.00;;;11.47;44.81
38227;BME280;24026;49.446;8.576;2024-01-30T02:22:45;101880.78;;;11.47;45.01
38227;BME280;24026;49.446;8.576;2024-01-30T02:25:06;101874.88;;;11.45;44.82
38227;BME280;24026;49.446;8.576;2024-01-30T02:27:27;101882.84;;;11.45;44.65
38227;BME280;24026;49.446;8.576;2024-01-30T02:29:47;101880.41;;;11.44;44.90
38227;BME280;24026;49.446;8.576;2024-01-30T02:32:07;101881.44;;;11.43;44.87
38227;BME280;24026;49.446;8.576;2024-01-30T02:34:28;101885.94;;;11.42;44.88
38227;BME280;24026;49.446;8.576;2024-01-30T02:36:48;101879.00;;;11.41;44.79
38227;BME280;24026;49.446;8.576;2024-01-30T02:39:09;101879.22;;;11.40;44.96
38227;BME280;24026;49.446;8.576;2024-01-30T02:41:30;101875.69;;;11.39;44.73
38227;BME280;24026;49.446;8.576;2024-01-30T02:43:50;101880.22;;;11.39;45.01
38227;BME280;24026;49.446;8.576;2024-01-30T02:46:10;101874.09;;;11.38;44.86
38227;BME280;24026;49.446;8.576;2024-01-30T02:48:31;101878.81;;;11.36;44.98
38227;BME280;24026;49.446;8.576;2024-01-30T02:50:51;101877.97;;;11.36;44.89
38227;BME280;24026;49.446;8.576;2024-01-30T02:53:12;101876.16;;;11.36;44.97
38227;BME280;24026;49.446;8.576;2024-01-30T02:55:33;101881.69;;;11.35;45.04
38227;BME280;24026;49.446;8.576;2024-01-30T02:57:53;101882.69;;;11.34;44.79
38227;BME280;24026;49.446;8.576;2024-01-30T03:00:14;101884.34;;;11.35;45.09
38227;BME280;24026;49.446;8.576;2024-01-30T03:02:35;101883.72;;;11.32;45.09
38227;BME280;24026;49.446;8.576;2024-01-30T03:04:55;101883.72;;;11.32;44.91
38227;BME280;24026;49.446;8.576;2024-01-30T03:07:16;101880.25;;;11.32;45.00
38227;BME280;24026;49.446;8.576;2024-01-30T03:09:37;101875.72;;;11.32;45.08
38227;BME280;24026;49.446;8.576;2024-01-30T03:11:57;101877.59;;;11.32;45.03
38227;BME280;24026;49.446;8.576;2024-01-30T03:14:17;101876.78;;;11.31;45.11
38227;BME280;24026;49.446;8.576;2024-01-30T03:16:38;101880.44;;;11.30;45.20
38227;BME280;24026;49.446;8.576;2024-01-30T03:18:58;101875.97;;;11.31;45.11
38227;BME280;24026;49.446;8.576;2024-01-30T03:21:21;101873.50;;;11.29;45.03
38227;BME280;24026;49.446;8.576;2024-01-30T03:23:41;101875.34;;;11.29;45.18
38227;BME280;24026;49.446;8.576;2024-01-30T03:26:02;101874.53;;;11.28;45.09
38227;BME280;24026;49.446;8.576;2024-01-30T03:28:24;101882.50;;;11.28;45.00
38227;BME280;24026;49.446;8.576;2024-01-30T03:30:45;101880.88;;;11.27;44.90
38227;BME280;24026;49.446;8.576;2024-01-30T03:33:05;101880.06;;;11.27;45.14
38227;BME280;24026;49.446;8.576;2024-01-30T03:35:25;101869.63;;;11.25;45.03
38227;BME280;24026;49.446;8.576;2024-01-30T03:37:46;101875.75;;;11.26;45.16
38227;BME280;24026;49.446;8.576;2024-01-30T03:40:06;101881.31;;;11.24;45.10
38227;BME280;24026;49.446;8.576;2024-01-30T03:42:27;101887.44;;;11.25;44.98
38227;BME280;24026;49.446;8.576;2024-01-30T03:44:48;101885.00;;;11.23;45.11
38227;BME280;24026;49.446;8.576;2024-01-30T03:47:08;101877.81;;;11.24;45.10
38227;BME280;24026;49.446;8.576;2024-01-30T03:49:28;101878.00;;;11.22;44.91
38227;BME280;24026;49.446;8.576;2024-01-30T03:51:49;101879.06;;;11.21;45.04
38227;BME280;24026;49.446;8.576;2024-01-30T03:54:09;101880.06;;;11.20;45.15
38227;BME280;24026;49.446;8.576;2024-01-30T03:56:30;101883.53;;;11.21;45.19
38227;BME280;24026;49.446;8.576;2024-01-30T03:58:50;101887.25;;;11.20;45.08
38227;BME280;24026;49.446;8.576;2024-01-30T04:01:14;101880.28;;;11.19;45.21
38227;BME280;24026;49.446;8.576;2024-01-30T04:03:35;101878.66;;;11.18;45.12
38227;BME280;24026;49.446;8.576;2024-01-30T04:05:55;101875.16;;;11.17;45.17
38227;BME280;24026;49.446;8.576;2024-01-30T04:08:15;101874.34;;;11.17;45.05
38227;BME280;24026;49.446;8.576;2024-01-30T04:10:36;101869.03;;;11.17;45.10
38227;BME280;24026;49.446;8.576;2024-01-30T04:12:56;101865.56;;;11.16;45.16
38227;BME280;24026;49.446;8.576;2024-01-30T04:15:17;101867.38;;;11.16;45.11
38227;BME280;24026;49.446;8.576;2024-01-30T04:17:38;101867.38;;;11.16;45.16
38227;BME280;24026;49.446;8.576;2024-01-30T04:19:59;101871.91;;;11.15;45.20
38227;BME280;24026;49.446;8.576;2024-01-30T04:22:19;101870.88;;;11.16;45.15
38227;BME280;24026;49.446;8.576;2024-01-30T04:24:39;101878.25;;;11.14;44.88
38227;BME280;24026;49.446;8.576;2024-01-30T04:27:00;101876.41;;;11.15;45.20
38227;BME280;24026;49.446;8.576;2024-01-30T04:29:20;101871.31;;;11.13;45.34
38227;BME280;24026;49.446;8.576;2024-01-30T04:31:42;101876.63;;;11.13;45.40
38227;BME280;24026;49.446;8.576;2024-01-30T04:34:03;101872.31;;;11.12;45.32
38227;BME280;24026;49.446;8.576;2024-01-30T04:36:23;101877.63;;;11.12;45.16
38227;BME280;24026;49.446;8.576;2024-01-30T04:38:43;101883.78;;;11.12;45.28
38227;BME280;24026;49.446;8.576;2024-01-30T04:41:04;101880.31;;;11.12;45.27
38227;BME280;24026;49.446;8.576;2024-01-30T04:43:24;101877.84;;;11.10;45.29
38227;BME280;24026;49.446;8.576;2024-01-30T04:45:46;101882.38;;;11.10;45.18
38227;BME280;24026;49.446;8.576;2024-01-30T04:48:07;101879.69;;;11.10;45.48
38227;BME280;24026;49.446;8.576;2024-01-30T04:50:27;101876.22;;;11.09;45.32
38227;BME280;24026;49.446;8.576;2024-01-30T04:52:48;101884.22;;;11.09;45.37
38227;BME280;24026;49.446;8.576;2024-01-30T04:55:08;101877.84;;;11.10;45.37
38227;BME280;24026;49.446;8.576;2024-01-30T04:57:28;101882.97;;;11.12;45.35
38227;BME280;24026;49.446;8.576;2024-01-30T04:59:49;101889.31;;;11.18;45.20
38227;BME280;24026;49.446;8.576;2024-01-30T05:02:09;101882.13;;;11.25;45.16
38227;BME280;24026;49.446;8.576;2024-01-30T05:04:30;101884.34;;;11.35;45.12
38227;BME280;24026;49.446;8.576;2024-01-30T05:06:50;101885.31;;;11.47;44.92
38227;BME280;24026;49.446;8.576;2024-01-30T05:09:11;101887.91;;;11.60;44.79
38227;BME280;24026;49.446;8.576;2024-01-30T05:11:31;101896.88;;;11.73;44.16
38227;BME280;24026;49.446;8.576;2024-01-30T05:13:56;101888.81;;;11.86;44.10
38227;BME280;24026;49.446;8.576;2024-01-30T05:16:17;101891.44;;;11.99;43.89
38227;BME280;24026;49.446;8.576;2024-01-30T05:18:38;101895.66;;;12.14;43.77
38227;BME280;24026;49.446;8.576;2024-01-30T05:20:58;101897.41;;;12.27;43.31
38227;BME280;24026;49.446;8.576;2024-01-30T05:23:18;101895.69;;;12.39;43.25
38227;BME280;24026;49.446;8.576;2024-01-30T05:25:39;101896.38;;;12.53;43.12
38227;BME280;24026;49.446;8.576;2024-01-30T05:27:59;101895.69;;;12.64;42.68
38227;BME280;24026;49.446;8.576;2024-01-30T05:30:20;101890.44;;;12.76;42.36
38227;BME280;24026;49.446;8.576;2024-01-30T05:32:40;101897.50;;;12.89;42.17
38227;BME280;24026;49.446;8.576;2024-01-30T05:35:00;101895.75;;;13.01;42.11
38227;BME280;24026;49.446;8.576;2024-01-30T05:37:21;101904.06;;;13.11;41.82
38227;BME280;24026;49.446;8.576;2024-01-30T05:39:42;101899.63;;;13.24;41.74
38227;BME280;24026;49.446;8.576;2024-01-30T05:42:04;101891.13;;;13.33;41.34
38227;BME280;24026;49.446;8.576;2024-01-30T05:44:24;101895.72;;;13.45;41.40
38227;BME280;24026;49.446;8.576;2024-01-30T05:46:46;101894.38;;;13.54;40.99
38227;BME280;24026;49.446;8.576;2024-01-30T05:49:06;101898.97;;;13.65;40.97
38227;BME280;24026;49.446;8.576;2024-01-30T05:51:28;101906.44;;;13.75;40.67
38227;BME280;24026;49.446;8.576;2024-01-30T05:53:48;101905.91;;;13.85;40.54
38227;BME280;24026;49.446;8.576;2024-01-30T05:56:11;101897.31;;;13.95;40.51
38227;BME280;24026;49.446;8.576;2024-01-30T05:58:34;101901.31;;;14.04;40.14
38227;BME280;24026;49.446;8.576;2024-01-30T06:00:58;101900.75;;;14.14;40.17
38227;BME280;24026;49.446;8.576;2024-01-30T06:03:20;101895.88;;;14.22;40.06
38227;BME280;24026;49.446;8.576;2024-01-30T06:05:40;101899.03;;;14.31;39.97
38227;BME280;24026;49.446;8.576;2024-01-30T06:08:03;101907.81;;;14.38;39.53
38227;BME280;24026;49.446;8.576;2024-01-30T06:10:24;101913.03;;;14.45;39.60
38227;BME280;24026;49.446;8.576;2024-01-30T06:12:46;101895.25;;;14.51;39.62
38227;BME280;24026;49.446;8.576;2024-01-30T06:15:11;101904.81;;;14.58;39.24
38227;BME280;24026;49.446;8.576;2024-01-30T06:17:39;101902.28;;;14.63;39.17
38227;BME280;24026;49.446;8.576;2024-01-30T06:20:01;101903.44;;;14.68;39.13
38227;BME280;24026;49.446;8.576;2024-01-30T06:22:28;101904.22;;;14.68;39.13
38227;BME280;24026;49.446;8.576;2024-01-30T06:24:51;101906.09;;;14.68;39.06
38227;BME280;24026;49.446;8.576;2024-01-30T06:27:13;101913.56;;;14.66;39.22
38227;BME280;24026;49.446;8.576;2024-01-30T06:29:35;101911.56;;;14.61;39.31
38227;BME280;24026;49.446;8.576;2024-01-30T06:31:57;101902.59;;;14.55;39.47
38227;BME280;24026;49.446;8.576;2024-01-30T06:34:19;101903.50;;;14.49;39.49
38227;BME280;24026;49.446;8.576;2024-01-30T06:36:42;101900.69;;;14.44;39.61
38227;BME280;24026;49.446;8.576;2024-01-30T06:39:06;101895.47;;;14.37;39.82
38227;BME280;24026;49.446;8.576;2024-01-30T06:41:30;101897.22;;;14.32;39.97
38227;BME280;24026;49.446;8.576;2024-01-30T06:43:53;101906.13;;;14.25;40.08
38227;BME280;24026;49.446;8.576;2024-01-30T06:46:16;101903.91;;;14.22;40.17
38227;BME280;24026;49.446;8.576;2024-01-30T06:48:36;101912.16;;;14.21;40.25
38227;BME280;24026;49.446;8.576;2024-01-30T06:50:57;101911.94;;;14.22;40.17
38227;BME280;24026;49.446;8.576;2024-01-30T06:53:19;101916.84;;;14.25;40.15
38227;BME280;24026;49.446;8.576;2024-01-30T06:55:39;101910.81;;;14.30;40.40
38227;BME280;24026;49.446;8.576;2024-01-30T06:58:09;101907.19;;;14.36;39.98
38227;BME280;24026;49.446;8.576;2024-01-30T07:00:30;101915.72;;;14.45;39.94
38227;BME280;24026;49.446;8.576;2024-01-30T07:02:51;101912.69;;;14.53;39.74
38227;BME280;24026;49.446;8.576;2024-01-30T07:05:11;101908.09;;;14.60;39.73
38227;BME280;24026;49.446;8.576;2024-01-30T07:07:32;101906.09;;;14.68;39.60
38227;BME280;24026;49.446;8.576;2024-01-30T07:09:53;101904.94;;;14.75;39.42
38227;BME280;24026;49.446;8.576;2024-01-30T07:12:18;101904.38;;;14.85;39.31
38227;BME280;24026;49.446;8.576;2024-01-30T07:14:39;101908.53;;;14.93;39.19
38227;BME280;24026;49.446;8.576;2024-01-30T07:16:59;101913.31;;;15.03;39.38
38227;BME280;24026;49.446;8.576;2024-01-30T07:19:19;101909.25;;;15.12;38.92
38227;BME280;24026;49.446;8.576;2024-01-30T07:21:40;101911.78;;;15.18;38.77
38227;BME280;24026;49.446;8.576;2024-01-30T07:24:00;101906.53;;;15.24;38.59
38227;BME280;24026;49.446;8.576;2024-01-30T07:26:21;101913.28;;;15.26;38.60
38227;BME280;24026;49.446;8.576;2024-01-30T07:28:41;101908.16;;;15.25;38.68
38227;BME280;24026;49.446;8.576;2024-01-30T07:31:02;101911.31;;;15.22;38.67
38227;BME280;24026;49.446;8.576;2024-01-30T07:33:22;101912.25;;;15.15;38.82
38227;BME280;24026;49.446;8.576;2024-01-30T07:35:43;101918.31;;;15.11;38.76
38227;BME280;24026;49.446;8.576;2024-01-30T07:38:03;101918.44;;;15.04;39.05
38227;BME280;24026;49.446;8.576;2024-01-30T07:40:24;101920.19;;;14.98;39.16
38227;BME280;24026;49.446;8.576;2024-01-30T07:42:48;101921.13;;;14.92;39.11
38227;BME280;24026;49.446;8.576;2024-01-30T07:45:10;101917.50;;;14.87;39.30
38227;BME280;24026;49.446;8.576;2024-01-30T07:47:30;101918.22;;;14.82;39.36
38227;BME280;24026;49.446;8.576;2024-01-30T07:49:52;101911.09;;;14.76;39.42
38227;BME280;24026;49.446;8.576;2024-01-30T07:52:12;101921.69;;;14.71;39.64
38227;BME280;24026;49.446;8.576;2024-01-30T07:54:33;101919.94;;;14.64;39.58
38227;BME280;24026;49.446;8.576;2024-01-30T07:56:53;101926.81;;;14.60;39.84
38227;BME280;24026;49.446;8.576;2024-01-30T07:59:15;101921.31;;;14.55;39.74
38227;BME280;24026;49.446;8.576;2024-01-30T08:01:37;101929.56;;;14.54;39.75
38227;BME280;24026;49.446;8.576;2024-01-30T08:06:19;101932.81;;;14.56;39.73
38227;BME280;24026;49.446;8.576;2024-01-30T08:08:39;101939.13;;;14.61;39.73
38227;BME280;24026;49.446;8.576;2024-01-30T08:11:00;101932.84;;;14.68;39.71
38227;BME280;24026;49.446;8.576;2024-01-30T08:13:20;101944.88;;;14.77;39.53
38227;BME280;24026;49.446;8.576;2024-01-30T08:15:41;101942.66;;;14.86;39.33
38227;BME280;24026;49.446;8.576;2024-01-30T08:18:02;101944.53;;;14.97;39.19
38227;BME280;24026;49.446;8.576;2024-01-30T08:20:24;101951.72;;;15.08;38.99
38227;BME280;24026;49.446;8.576;2024-01-30T08:22:44;101950.91;;;15.19;38.86
38227;BME280;24026;49.446;8.576;2024-01-30T08:25:06;101953.78;;;15.30;38.65
38227;BME280;24026;49.446;8.576;2024-01-30T08:27:26;101955.66;;;15.41;38.66
38227;BME280;24026;49.446;8.576;2024-01-30T08:29:47;101961.44;;;15.50;38.41
38227;BME280;24026;49.446;8.576;2024-01-30T08:32:07;101965.63;;;15.57;38.21
38227;BME280;24026;49.446;8.576;2024-01-30T08:34:28;101963.28;;;15.61;38.18
38227;BME280;24026;49.446;8.576;2024-01-30T08:36:48;101954.78;;;15.64;38.17
38227;BME280;24026;49.446;8.576;2024-01-30T08:39:08;101956.66;;;15.64;38.10
38227;BME280;24026;49.446;8.576;2024-01-30T08:41:29;101965.75;;;15.63;38.11
38227;BME280;24026;49.446;8.576;2024-01-30T08:43:50;101960.84;;;15.60;38.17
38227;BME280;24026;49.446;8.576;2024-01-30T08:46:11;101959.47;;;15.57;38.31
38227;BME280;24026;49.446;8.576;2024-01-30T08:48:31;101956.69;;;15.52;38.37
38227;BME280;24026;49.446;8.576;2024-01-30T08:50:52;101958.19;;;15.48;38.18
38227;BME280;24026;49.446;8.576;2024-01-30T08:53:12;101963.44;;;15.43;38.66
38227;BME280;24026;49.446;8.576;2024-01-30T08:55:33;101960.44;;;15.39;38.51
38227;BME280;24026;49.446;8.576;2024-01-30T08:57:53;101964.03;;;15.33;38.60
38227;BME280;24026;49.446;8.576;2024-01-30T09:00:14;101963.72;;;15.29;38.73
38227;BME280;24026;49.446;8.576;2024-01-30T09:02:35;101960.91;;;15.24;38.77
38227;BME280;24026;49.446;8.576;2024-01-30T09:04:55;101954.38;;;15.20;38.95
38227;BME280;24026;49.446;8.576;2024-01-30T09:07:15;101959.63;;;15.15;38.95
38227;BME280;24026;49.446;8.576;2024-01-30T09:09:38;101954.75;;;15.12;39.14
38227;BME280;24026;49.446;8.576;2024-01-30T09:11:59;101964.28;;;15.08;39.09
38227;BME280;24026;49.446;8.576;2024-01-30T09:14:24;101961.50;;;15.03;39.17
38227;BME280;24026;49.446;8.576;2024-01-30T09:16:45;101965.72;;;14.98;39.27
38227;BME280;24026;49.446;8.576;2024-01-30T09:19:05;101969.88;;;14.94;39.35
38227;BME280;24026;49.446;8.576;2024-01-30T09:21:26;101976.53;;;14.92;39.39
38227;BME280;24026;49.446;8.576;2024-01-30T09:23:47;101970.56;;;14.90;39.51
38227;BME280;24026;49.446;8.576;2024-01-30T09:26:07;101967.09;;;14.89;39.48
38227;BME280;24026;49.446;8.576;2024-01-30T09:28:28;101970.91;;;14.93;39.31
38227;BME280;24026;49.446;8.576;2024-01-30T09:30:49;101972.44;;;15.01;39.37
38227;BME280;24026;49.446;8.576;2024-01-30T09:33:09;101969.41;;;15.09;39.21
38227;BME280;24026;49.446;8.576;2024-01-30T09:35:30;101969.66;;;15.19;39.06
38227;BME280;24026;49.446;8.576;2024-01-30T09:37:57;101968.81;;;15.31;38.86
38227;BME280;24026;49.446;8.576;2024-01-30T09:40:21;101968.00;;;15.42;38.63
38227;BME280;24026;49.446;8.576;2024-01-30T09:42:45;101976.81;;;15.54;38.72
38227;BME280;24026;49.446;8.576;2024-01-30T09:45:06;101971.66;;;15.65;38.45
38227;BME280;24026;49.446;8.576;2024-01-30T09:47:27;101973.53;;;15.76;38.22
38227;BME280;24026;49.446;8.576;2024-01-30T09:49:47;101976.88;;;15.83;38.24
38227;BME280;24026;49.446;8.576;2024-01-30T09:52:08;101971.38;;;15.90;38.04
38227;BME280;24026;49.446;8.576;2024-01-30T09:54:32;101979.53;;;15.95;37.98
38227;BME280;24026;49.446;8.576;2024-01-30T09:56:52;101981.97;;;15.97;37.91
38227;BME280;24026;49.446;8.576;2024-01-30T09:59:13;101970.69;;;15.95;37.93
38227;BME280;24026;49.446;8.576;2024-01-30T10:01:34;101976.28;;;15.93;37.87
38227;BME280;24026;49.446;8.576;2024-01-30T10:03:55;101982.13;;;15.90;37.99
38227;BME280;24026;49.446;8.576;2024-01-30T10:06:16;101977.47;;;15.85;38.24
38227;BME280;24026;49.446;8.576;2024-01-30T10:08:37;101977.34;;;15.80;38.09
38227;BME280;24026;49.446;8.576;2024-01-30T10:10:58;101979.72;;;15.77;38.17
38227;BME280;24026;49.446;8.576;2024-01-30T10:13:18;101971.53;;;15.71;38.20
38227;BME280;24026;49.446;8.576;2024-01-30T10:15:39;101969.56;;;15.67;38.43
38227;BME280;24026;49.446;8.576;2024-01-30T10:18:00;101982.63;;;15.63;38.52
38227;BME280;24026;49.446;8.576;2024-01-30T10:20:21;101978.00;;;15.59;38.63
38227;BME280;24026;49.446;8.576;2024-01-30T10:22:42;101977.63;;;15.55;38.70
38227;BME280;24026;49.446;8.576;2024-01-30T10:25:04;101978.34;;;15.50;38.86
38227;BME280;24026;49.446;8.576;2024-01-30T10:27:27;101979.88;;;15.46;38.77
38227;BME280;24026;49.446;8.576;2024-01-30T10:29:49;101979.53;;;15.43;38.97
38227;BME280;24026;49.446;8.576;2024-01-30T10:32:10;101978.38;;;15.38;38.98
38227;BME280;24026;49.446;8.576;2024-01-30T10:34:32;101976.41;;;15.34;39.09
38227;BME280;24026;49.446;8.576;2024-01-30T10:37:09;101981.41;;;15.30;39.24
38227;BME280;24026;49.446;8.576;2024-01-30T10:39:40;101976.75;;;15.26;39.11
38227;BME280;24026;49.446;8.576;2024-01-30T10:42:05;101971.06;;;15.22;39.29
38227;BME280;24026;49.446;8.576;2024-01-30T10:44:26;101973.41;;;15.18;39.26
38227;BME280;24026;49.446;8.576;2024-01-30T10:46:58;101972.56;;;15.18;39.44
38227;BME280;24026;49.446;8.576;2024-01-30T10:49:24;101971.75;;;15.17;39.43
38227;BME280;24026;49.446;8.576;2024-01-30T10:51:46;101969.41;;;15.21;39.29
38227;BME280;24026;49.446;8.576;2024-01-30T10:54:09;101970.09;;;15.28;39.36
38227;BME280;24026;49.446;8.576;2024-01-30T10:56:32;101966.59;;;15.40;39.37
38227;BME280;24026;49.446;8.576;2024-01-30T10:58:55;101954.25;;;15.50;39.14
38227;BME280;24026;49.446;8.576;2024-01-30T11:01:16;101959.56;;;15.62;38.78
38227;BME280;24026;49.446;8.576;2024-01-30T11:03:37;101953.09;;;15.75;38.68
38227;BME280;24026;49.446;8.576;2024-01-30T11:06:00;101951.25;;;15.87;38.66
38227;BME280;24026;49.446;8.576;2024-01-30T11:08:25;101965.41;;;16.00;38.53
38227;BME280;24026;49.446;8.576;2024-01-30T11:10:46;101960.00;;;16.11;38.24
38227;BME280;24026;49.446;8.576;2024-01-30T11:13:10;101963.94;;;16.21;38.02
38227;BME280;24026;49.446;8.576;2024-01-30T11:15:33;101965.38;;;16.28;38.01
38227;BME280;24026;49.446;8.576;2024-01-30T11:17:54;101966.53;;;16.33;37.82
38227;BME280;24026;49.446;8.576;2024-01-30T11:20:16;101973.28;;;16.35;37.84
38227;BME280;24026;49.446;8.576;2024-01-30T11:22:37;101971.44;;;16.36;37.81
38227;BME280;24026;49.446;8.576;2024-01-30T11:24:58;101968.16;;;16.34;37.75
38227;BME280;24026;49.446;8.576;2024-01-30T11:27:21;101972.97;;;16.32;37.77
38227;BME280;24026;49.446;8.576;2024-01-30T11:29:42;101963.53;;;16.29;37.84
38227;BME280;24026;49.446;8.576;2024-01-30T11:32:03;101957.81;;;16.25;37.73
38227;BME280;24026;49.446;8.576;2024-01-30T11:34:25;101954.81;;;16.22;38.00
38227;BME280;24026;49.446;8.576;2024-01-30T11:36:53;101955.28;;;16.19;37.90
38227;BME280;24026;49.446;8.576;2024-01-30T11:39:30;101948.22;;;16.13;38.11
38227;BME280;24026;49.446;8.576;2024-01-30T11:41:51;101948.69;;;16.09;38.26
38227;BME280;24026;49.446;8.576;2024-01-30T11:44:12;101949.19;;;16.06;38.33
38227;BME280;24026;49.446;8.576;2024-01-30T11:46:33;101940.81;;;16.03;38.41
38227;BME280;24026;49.446;8.576;2024-01-30T11:48:54;101953.03;;;15.99;38.30
38227;BME280;24026;49.446;8.576;2024-01-30T11:51:15;101945.50;;;15.96;38.40
38227;BME280;24026;49.446;8.576;2024-01-30T11:53:35;101930.94;;;15.91;38.64
38227;BME280;24026;49.446;8.576;2024-01-30T11:55:55;101928.72;;;15.88;38.57
38227;BME280;24026;49.446;8.576;2024-01-30T11:58:16;101929.19;;;15.85;38.76
38227;BME280;24026;49.446;8.576;2024-01-30T12:00:36;101928.06;;;15.81;38.79
38227;BME280;24026;49.446;8.576;2024-01-30T12:02:57;101916.78;;;15.79;38.93
38227;BME280;24026;49.446;8.576;2024-01-30T12:05:19;101917.25;;;15.76;39.26
38227;BME280;24026;49.446;8.576;2024-01-30T12:07:44;101909.66;;;15.73;39.03
38227;BME280;24026;49.446;8.576;2024-01-30T12:10:04;101908.53;;;15.69;39.05
38227;BME280;24026;49.446;8.576;2024-01-30T12:12:27;101904.19;;;15.68;39.11
38227;BME280;24026;49.446;8.576;2024-01-30T12:14:47;101900.16;;;15.65;39.25
38227;BME280;24026;49.446;8.576;2024-01-30T12:17:08;101897.94;;;15.62;39.28
38227;BME280;24026;49.446;8.576;2024-01-30T12:19:29;101898.41;;;15.59;39.26
38227;BME280;24026;49.446;8.576;2024-01-30T12:21:59;101901.56;;;15.56;39.41